New Truxton, Missouri
Current Conditions -  °F | °C
As of 4:55 PM on Tuesday 21 Oct 2014 (Local Time) from KFYG Reporting Station
Clear Clear  
Wind Chill: 66°   Ceiling: Unl
Heat Index: 66°   Visibility: 10mi
Dew Point: 45°   Wind: 3mph
Humidity: 46%   Direction: 50°NE
Pressure: 30.1"   Gusts: NA
Location:  38.9675°N, 91.211°W
Report Text: KFYG 212155Z AUTO 05003KT 10SM CLR 19/07 A3010 RMK AO2
Loading
Personal Weather Stations






























Interactive Weather Map
Tropical Storm Tracking
New forecast layout! Learn more

10-Day Weather Forecast

Advertisements
Track Severe Weather on mobile